Time;durP1;ratioP1;P1;durP2;ratioP2;P2;SDS_P1;SDS_P2;PMS_P1;PMS_P2;Temp;Humidity;BMP_temperature;BMP_pressure;BME280_temperature;BME280_humidity;BME280_pressure;Samples;Min_cycle;Max_cycle;Signal;HPM_P1;HPM_P2
2022/02/18 00:01:00;;;;;;;11.65;3.30;;;5.70;99.90;;;;;;5139899;27;20404;-81
2022/02/18 00:03:27;;;;;;;11.35;3.30;;;5.60;99.90;;;;;;5138663;27;20388;-80
2022/02/18 00:05:54;;;;;;;10.77;3.92;;;5.60;99.90;;;;;;5138029;27;20439;-82
2022/02/18 00:08:20;;;;;;;11.60;3.40;;;5.70;99.90;;;;;;5139541;27;20377;-81
2022/02/18 00:10:47;;;;;;;9.75;3.42;;;5.60;99.90;;;;;;5140131;27;21255;-82
2022/02/18 00:13:13;;;;;;;12.80;3.05;;;5.60;99.90;;;;;;5138266;27;20377;-81
2022/02/18 00:15:39;;;;;;;13.57;3.88;;;5.40;99.90;;;;;;5119853;27;20460;-81
2022/02/18 00:18:05;;;;;;;12.52;3.30;;;5.50;99.90;;;;;;5136694;27;20374;-81
2022/02/18 00:20:33;;;;;;;11.27;3.72;;;5.50;99.90;;;;;;5138529;27;20394;-80
2022/02/18 00:23:03;;;;;;;13.53;3.43;;;5.50;99.90;;;;;;5137498;27;20373;-81
2022/02/18 00:25:29;;;;;;;13.50;4.70;;;5.50;99.90;;;;;;5117558;27;20373;-82
2022/02/18 00:27:55;;;;;;;10.10;3.55;;;5.50;99.90;;;;;;5137002;27;20381;-81
2022/02/18 00:30:20;;;;;;;13.68;4.40;;;5.50;99.90;;;;;;5136468;27;20513;-80
2022/02/18 00:32:46;;;;;;;11.43;3.47;;;5.50;99.90;;;;;;5118514;27;20377;-80
2022/02/18 00:35:12;;;;;;;11.77;4.00;;;5.50;99.90;;;;;;5116701;27;20412;-81
2022/02/18 00:37:38;;;;;;;11.80;3.72;;;5.50;99.90;;;;;;5137528;27;20388;-80
2022/02/18 00:40:04;;;;;;;12.20;3.63;;;5.40;99.90;;;;;;5118218;27;20381;-81
2022/02/18 00:42:30;;;;;;;12.68;3.63;;;5.50;99.90;;;;;;5137297;27;20408;-82
2022/02/18 00:44:56;;;;;;;13.47;3.87;;;5.30;99.90;;;;;;5118667;27;20365;-81
2022/02/18 00:47:22;;;;;;;12.77;3.58;;;5.40;99.90;;;;;;5119037;27;20430;-81
2022/02/18 00:49:48;;;;;;;12.75;3.63;;;5.40;99.90;;;;;;5134864;27;20381;-81
2022/02/18 00:52:15;;;;;;;15.65;3.90;;;5.50;99.90;;;;;;5120143;27;20764;-79
2022/02/18 00:54:41;;;;;;;13.37;3.80;;;5.60;99.90;;;;;;5120361;27;20723;-78
2022/02/18 00:57:07;;;;;;;12.35;4.10;;;5.50;99.90;;;;;;5137445;27;20396;-81
2022/02/18 00:59:32;;;;;;;11.10;3.70;;;5.40;99.90;;;;;;5103964;28;20391;-80
2022/02/18 01:01:58;;;;;;;10.70;3.53;;;5.40;99.90;;;;;;5117231;28;20436;-79
2022/02/18 01:04:23;;;;;;;11.53;3.40;;;5.30;99.90;;;;;;5116735;28;20748;-79
2022/02/18 01:06:49;;;;;;;11.25;3.25;;;5.30;99.90;;;;;;5115937;28;20375;-80
2022/02/18 01:09:15;;;;;;;9.27;3.50;;;5.30;99.90;;;;;;5115907;28;20370;-81
2022/02/18 01:11:40;;;;;;;12.90;3.53;;;5.30;99.90;;;;;;5115725;28;20938;-79
2022/02/18 01:14:06;;;;;;;12.95;3.88;;;5.20;99.90;;;;;;5116485;28;20375;-82
2022/02/18 01:16:32;;;;;;;13.43;3.60;;;5.30;99.90;;;;;;5117889;28;20422;-81
2022/02/18 01:18:58;;;;;;;11.43;3.67;;;5.20;99.90;;;;;;5116817;28;20745;-81
2022/02/18 01:21:25;;;;;;;13.15;3.70;;;5.20;99.90;;;;;;5117368;28;20379;-81
2022/02/18 01:23:51;;;;;;;12.07;3.40;;;5.20;99.90;;;;;;5116139;28;20423;-82
2022/02/18 01:26:17;;;;;;;12.30;3.80;;;5.20;99.90;;;;;;5116912;28;20374;-81
2022/02/18 01:28:43;;;;;;;16.60;4.27;;;5.10;99.90;;;;;;5115651;28;20744;-80
2022/02/18 01:31:09;;;;;;;14.10;4.05;;;5.10;99.90;;;;;;5117141;28;20363;-80
2022/02/18 01:33:34;;;;;;;12.32;3.38;;;5.00;99.90;;;;;;5117038;28;20390;-81
2022/02/18 01:36:00;;;;;;;11.47;3.63;;;5.10;99.90;;;;;;5116349;28;20521;-81
2022/02/18 01:38:26;;;;;;;12.63;4.03;;;5.10;99.90;;;;;;5116778;28;20457;-81
2022/02/18 01:40:51;;;;;;;9.53;3.13;;;5.20;99.90;;;;;;5098796;28;20405;-81
2022/02/18 01:43:17;;;;;;;11.05;3.75;;;5.00;99.90;;;;;;5116146;28;20366;-82
2022/02/18 01:45:43;;;;;;;12.70;4.28;;;5.10;99.90;;;;;;5114209;28;20416;-81
2022/02/18 01:48:08;;;;;;;13.23;4.23;;;5.10;99.90;;;;;;5113533;28;20373;-81
2022/02/18 01:50:34;;;;;;;11.23;3.97;;;5.20;99.90;;;;;;5114081;28;20949;-82
2022/02/18 01:53:01;;;;;;;10.57;3.58;;;5.10;99.90;;;;;;5113588;28;20383;-79
2022/02/18 01:55:27;;;;;;;11.55;3.25;;;5.10;99.90;;;;;;5095674;28;20913;-79
2022/02/18 01:57:58;;;;;;;12.25;3.85;;;5.00;99.90;;;;;;5095674;27;20406;-79
2022/02/18 02:00:27;;;;;;;10.83;3.30;;;5.00;99.90;;;;;;5135591;27;20871;-78
2022/02/18 02:02:53;;;;;;;11.73;3.38;;;5.10;99.90;;;;;;5115358;27;20372;-80
2022/02/18 02:05:21;;;;;;;11.35;3.50;;;5.00;99.90;;;;;;5116583;27;20393;-79
2022/02/18 02:07:46;;;;;;;11.15;3.72;;;5.00;99.90;;;;;;5134784;27;20365;-83
2022/02/18 02:10:14;;;;;;;11.73;3.50;;;5.00;99.90;;;;;;5116571;27;20392;-80
2022/02/18 02:12:50;;;;;;;8.98;3.28;;;5.00;99.90;;;;;;5135279;27;20373;-80
2022/02/18 02:15:17;;;;;;;9.05;3.30;;;5.00;99.90;;;;;;5135745;27;20389;-80
2022/02/18 02:17:43;;;;;;;9.90;3.40;;;5.00;99.90;;;;;;5135862;27;20427;-79
2022/02/18 02:20:10;;;;;;;13.25;3.13;;;5.00;99.90;;;;;;5135205;27;20385;-80
2022/02/18 02:22:36;;;;;;;16.30;4.23;;;4.90;99.90;;;;;;5136688;27;20387;-79
2022/02/18 02:25:02;;;;;;;11.27;3.17;;;4.90;99.90;;;;;;5134022;27;20369;-81
2022/02/18 02:27:30;;;;;;;10.35;3.60;;;4.90;99.90;;;;;;5114929;27;21269;-80
2022/02/18 02:29:56;;;;;;;11.30;3.63;;;4.90;99.90;;;;;;5135351;27;20369;-81
2022/02/18 02:32:22;;;;;;;17.08;3.90;;;5.00;99.90;;;;;;5134023;27;20369;-81
2022/02/18 02:34:48;;;;;;;8.87;3.40;;;4.90;99.90;;;;;;5133380;27;20459;-80
2022/02/18 02:37:14;;;;;;;12.47;4.10;;;4.80;99.90;;;;;;5116399;27;20400;-81
2022/02/18 02:39:40;;;;;;;11.15;3.42;;;4.80;99.90;;;;;;5134179;27;20383;-81
2022/02/18 02:42:06;;;;;;;12.67;4.57;;;4.70;99.90;;;;;;5135394;27;20810;-80
2022/02/18 02:44:33;;;;;;;11.87;3.47;;;4.70;99.90;;;;;;5135091;27;20388;-81
2022/02/18 02:46:59;;;;;;;11.57;3.25;;;4.70;99.90;;;;;;5134202;27;20875;-82
2022/02/18 02:49:25;;;;;;;11.23;3.55;;;4.70;99.90;;;;;;5134183;27;20373;-81
2022/02/18 02:51:50;;;;;;;14.27;3.65;;;4.80;99.90;;;;;;5134112;27;20376;-80
2022/02/18 02:54:16;;;;;;;10.68;3.20;;;4.70;99.90;;;;;;5134946;27;20369;-81
2022/02/18 02:56:42;;;;;;;13.82;4.00;;;4.80;99.90;;;;;;5135172;27;20542;-82
2022/02/18 02:59:08;;;;;;;9.20;3.50;;;4.70;99.90;;;;;;5123948;27;20371;-80
2022/02/18 03:01:34;;;;;;;15.73;3.58;;;4.70;99.90;;;;;;5115114;28;20381;-81
2022/02/18 03:04:00;;;;;;;12.00;3.42;;;4.60;99.90;;;;;;5115367;28;20371;-81
2022/02/18 03:06:25;;;;;;;13.48;3.47;;;4.60;99.90;;;;;;5112426;28;20401;-81
2022/02/18 03:08:51;;;;;;;13.63;3.88;;;4.60;99.90;;;;;;5095461;28;20383;-81
2022/02/18 03:11:17;;;;;;;12.38;4.05;;;4.70;99.90;;;;;;5113069;28;20462;-82
2022/02/18 03:13:49;;;;;;;12.20;3.40;;;4.60;99.90;;;;;;5113735;28;20363;-81
2022/02/18 03:16:16;;;;;;;11.02;3.67;;;4.60;99.90;;;;;;5095380;28;20460;-81
2022/02/18 03:18:42;;;;;;;13.18;4.40;;;4.60;99.90;;;;;;5114716;28;20366;-81
2022/02/18 03:21:08;;;;;;;13.45;4.60;;;4.60;99.90;;;;;;5115737;28;20503;-80
2022/02/18 03:23:35;;;;;;;11.07;3.70;;;4.60;99.90;;;;;;5096234;28;20930;-79
2022/02/18 03:26:00;;;;;;;13.45;3.53;;;4.50;99.90;;;;;;5096974;28;20435;-80
2022/02/18 03:28:26;;;;;;;11.43;3.50;;;4.50;99.90;;;;;;5115720;28;20458;-81
2022/02/18 03:30:52;;;;;;;13.75;3.90;;;4.50;99.90;;;;;;5115687;28;20367;-81
2022/02/18 03:33:18;;;;;;;11.80;3.50;;;4.50;99.90;;;;;;5115555;28;20432;-80
2022/02/18 03:35:43;;;;;;;10.00;3.50;;;4.40;99.90;;;;;;5115178;28;20485;-81
2022/02/18 03:38:09;;;;;;;10.80;4.03;;;4.40;99.90;;;;;;5111987;28;20371;-81
2022/02/18 03:40:35;;;;;;;12.00;3.90;;;4.40;99.90;;;;;;5113306;28;20393;-80
2022/02/18 03:43:01;;;;;;;11.97;3.70;;;4.40;99.90;;;;;;5112674;28;20363;-81
2022/02/18 03:45:27;;;;;;;13.00;4.10;;;4.30;99.90;;;;;;5113519;28;20363;-80
2022/02/18 03:47:52;;;;;;;12.00;4.10;;;4.30;99.90;;;;;;5094528;28;20387;-80
2022/02/18 03:50:18;;;;;;;12.80;3.83;;;4.30;99.90;;;;;;5095381;28;20391;-81
2022/02/18 03:52:44;;;;;;;11.83;3.53;;;4.30;99.90;;;;;;5113673;28;20370;-80
2022/02/18 03:55:10;;;;;;;18.00;4.60;;;4.40;99.90;;;;;;5113223;28;20375;-80
2022/02/18 03:57:36;;;;;;;12.60;3.80;;;4.30;99.90;;;;;;5112844;28;20402;-80
2022/02/18 04:00:03;;;;;;;13.23;4.27;;;4.30;99.90;;;;;;5131606;28;20457;-80
2022/02/18 04:02:28;;;;;;;11.00;3.55;;;4.30;99.90;;;;;;5133714;28;20377;-79
2022/02/18 04:04:54;;;;;;;11.80;3.67;;;4.20;99.90;;;;;;5134277;28;20438;-79
2022/02/18 04:07:19;;;;;;;12.75;3.92;;;4.30;99.90;;;;;;5114393;28;20397;-80
2022/02/18 04:09:45;;;;;;;10.77;3.50;;;4.20;99.90;;;;;;5136298;27;20380;-80
2022/02/18 04:12:10;;;;;;;12.13;4.13;;;4.20;99.90;;;;;;5118269;27;20427;-80
2022/02/18 04:14:36;;;;;;;15.00;3.28;;;4.20;99.90;;;;;;5136174;27;20461;-81
2022/02/18 04:17:02;;;;;;;11.13;3.50;;;4.30;99.90;;;;;;5135847;27;20400;-80
2022/02/18 04:19:27;;;;;;;12.73;3.57;;;4.30;99.90;;;;;;5138273;27;20850;-79
2022/02/18 04:21:53;;;;;;;13.57;4.20;;;4.20;99.90;;;;;;5136183;27;20384;-79
2022/02/18 04:24:18;;;;;;;11.75;3.58;;;4.20;99.90;;;;;;5135650;27;20380;-80
2022/02/18 04:26:44;;;;;;;10.80;3.63;;;4.20;99.90;;;;;;5136598;27;20464;-81
2022/02/18 04:29:11;;;;;;;10.17;3.90;;;4.20;99.90;;;;;;5117321;27;20400;-81
2022/02/18 04:31:37;;;;;;;12.60;3.92;;;4.20;99.90;;;;;;5135507;27;20401;-81
2022/02/18 04:34:02;;;;;;;10.00;3.83;;;4.20;99.90;;;;;;5116592;27;20849;-82
2022/02/18 04:36:28;;;;;;;13.97;4.03;;;4.10;99.90;;;;;;5135134;27;20404;-80
2022/02/18 04:38:54;;;;;;;13.93;4.10;;;4.10;99.90;;;;;;5133853;27;20396;-80
2022/02/18 04:41:21;;;;;;;12.33;3.57;;;4.10;99.90;;;;;;5114950;27;20389;-80
2022/02/18 04:43:47;;;;;;;12.95;3.83;;;4.10;99.90;;;;;;5116686;27;20422;-81
2022/02/18 04:46:13;;;;;;;11.00;3.73;;;4.00;99.90;;;;;;5135756;27;20788;-80
2022/02/18 04:48:38;;;;;;;11.93;3.93;;;3.90;99.90;;;;;;5132888;27;20362;-79
2022/02/18 04:51:06;;;;;;;12.65;3.38;;;3.90;99.90;;;;;;5131829;27;21264;-80
2022/02/18 04:53:31;;;;;;;15.37;4.40;;;3.90;99.90;;;;;;5133403;27;20369;-80
2022/02/18 04:55:57;;;;;;;11.73;4.30;;;3.80;99.90;;;;;;5132079;27;20373;-81
2022/02/18 04:58:22;;;;;;;12.15;3.95;;;3.80;99.90;;;;;;5110766;28;20375;-79
2022/02/18 05:00:48;;;;;;;12.88;4.07;;;3.70;99.90;;;;;;5114585;28;20725;-80
2022/02/18 05:03:14;;;;;;;13.20;4.00;;;3.60;99.90;;;;;;5112251;28;20459;-81
2022/02/18 05:05:39;;;;;;;16.23;4.03;;;3.60;99.90;;;;;;5112456;28;20371;-81
2022/02/18 05:08:05;;;;;;;10.53;3.70;;;3.50;99.90;;;;;;5111124;28;20429;-80
2022/02/18 05:10:30;;;;;;;12.63;4.05;;;3.60;99.90;;;;;;5112426;28;20400;-81
2022/02/18 05:12:56;;;;;;;9.57;3.22;;;3.60;99.90;;;;;;5112034;28;20366;-81
2022/02/18 05:15:22;;;;;;;9.07;3.50;;;3.70;99.90;;;;;;5093451;28;20481;-80
2022/02/18 05:17:48;;;;;;;12.67;3.73;;;3.60;99.90;;;;;;5112161;28;20394;-80
2022/02/18 05:20:17;;;;;;;13.15;4.43;;;3.60;99.90;;;;;;5094723;28;20385;-81
2022/02/18 05:22:43;;;;;;;10.55;3.53;;;3.60;99.90;;;;;;5095396;28;20395;-80
2022/02/18 05:25:09;;;;;;;13.90;4.55;;;3.60;99.90;;;;;;5115223;28;20933;-80
2022/02/18 05:27:35;;;;;;;10.18;3.45;;;3.60;99.90;;;;;;5114314;28;20375;-80
2022/02/18 05:30:01;;;;;;;11.98;3.58;;;3.60;99.90;;;;;;5095477;28;20420;-79
2022/02/18 05:32:26;;;;;;;13.47;4.00;;;3.60;99.90;;;;;;5114360;28;20429;-80
2022/02/18 05:34:52;;;;;;;14.90;4.43;;;3.70;99.90;;;;;;5114792;28;20382;-80
2022/02/18 05:37:18;;;;;;;12.67;3.70;;;3.60;99.90;;;;;;5112134;28;20406;-81
2022/02/18 05:39:44;;;;;;;12.65;3.60;;;3.70;99.90;;;;;;5113264;28;20382;-80
2022/02/18 05:42:09;;;;;;;13.65;4.47;;;3.70;99.90;;;;;;5112584;28;20379;-80
2022/02/18 05:44:35;;;;;;;13.27;3.70;;;3.70;99.90;;;;;;5113593;28;20723;-81
2022/02/18 05:47:01;;;;;;;14.23;5.70;;;3.70;99.90;;;;;;5093413;28;20383;-81
2022/02/18 05:49:28;;;;;;;13.80;4.70;;;3.60;99.90;;;;;;5113944;28;20449;-80
2022/02/18 05:51:54;;;;;;;12.80;4.03;;;3.60;99.90;;;;;;5111724;28;20378;-80
2022/02/18 05:54:20;;;;;;;11.93;4.20;;;3.50;99.90;;;;;;5110832;28;20788;-81
2022/02/18 05:56:47;;;;;;;12.67;4.17;;;3.50;99.90;;;;;;5113788;28;20390;-82
2022/02/18 05:59:14;;;;;;;11.98;4.43;;;3.50;99.90;;;;;;5107186;27;20479;-82
2022/02/18 06:01:44;;;;;;;13.07;5.00;;;3.50;99.90;;;;;;5102464;28;20442;-82
2022/02/18 06:04:13;;;;;;;13.95;4.38;;;3.60;99.90;;;;;;5117617;27;20384;-80
2022/02/18 06:06:39;;;;;;;16.33;4.80;;;3.50;99.90;;;;;;5123517;27;20426;-80
2022/02/18 06:09:06;;;;;;;14.07;4.72;;;3.60;99.90;;;;;;5112175;28;20460;-81
2022/02/18 06:11:32;;;;;;;11.90;4.97;;;3.70;99.90;;;;;;5110609;28;20383;-79
2022/02/18 06:13:57;;;;;;;13.77;4.65;;;3.70;99.90;;;;;;5092369;28;21109;-79
2022/02/18 06:16:24;;;;;;;12.73;4.60;;;3.70;99.90;;;;;;5082690;28;20405;-79
2022/02/18 06:18:49;;;;;;;14.63;4.78;;;3.70;99.90;;;;;;5102806;28;20415;-82
2022/02/18 06:21:15;;;;;;;12.27;4.50;;;3.70;99.90;;;;;;5105576;27;20411;-82
2022/02/18 06:23:40;;;;;;;14.05;5.05;;;3.70;99.90;;;;;;5132132;27;20427;-81
2022/02/18 06:26:08;;;;;;;13.27;5.10;;;3.80;99.90;;;;;;5132254;27;20476;-80
2022/02/18 06:28:34;;;;;;;11.55;4.68;;;3.80;99.90;;;;;;5112671;27;20396;-81
2022/02/18 06:30:59;;;;;;;14.07;4.80;;;3.80;99.90;;;;;;5113543;27;20380;-82
2022/02/18 06:33:25;;;;;;;15.60;5.18;;;3.90;99.90;;;;;;5131636;27;20844;-81
2022/02/18 06:35:50;;;;;;;16.58;4.68;;;3.90;99.90;;;;;;5130626;27;20369;-80
2022/02/18 06:38:16;;;;;;;16.23;5.18;;;3.90;99.90;;;;;;5129215;27;20423;-80
2022/02/18 06:40:42;;;;;;;15.90;5.40;;;3.90;99.90;;;;;;5131007;27;20875;-80
2022/02/18 06:43:07;;;;;;;13.57;5.37;;;3.90;99.90;;;;;;5117396;27;20372;-79
2022/02/18 06:45:34;;;;;;;16.30;5.50;;;4.00;99.90;;;;;;5122507;27;20412;-80
2022/02/18 06:47:59;;;;;;;15.13;5.90;;;3.90;99.90;;;;;;5109870;28;20919;-80
2022/02/18 06:50:25;;;;;;;12.13;5.60;;;3.90;99.90;;;;;;5109134;28;20375;-80
2022/02/18 06:52:51;;;;;;;15.47;5.50;;;3.90;99.90;;;;;;5108340;28;20768;-79
2022/02/18 06:55:24;;;;;;;15.15;5.50;;;3.90;99.90;;;;;;5109658;28;20367;-81
2022/02/18 06:57:52;;;;;;;15.00;5.13;;;3.90;99.90;;;;;;5107643;28;20410;-81
2022/02/18 07:00:18;;;;;;;13.27;6.00;;;3.90;99.90;;;;;;5108546;28;20466;-81
2022/02/18 07:02:44;;;;;;;16.35;6.05;;;3.90;99.90;;;;;;5091386;28;20517;-80
2022/02/18 07:05:12;;;;;;;15.50;5.95;;;4.00;99.90;;;;;;5108559;28;20374;-80
2022/02/18 07:07:38;;;;;;;13.77;6.65;;;4.10;99.90;;;;;;5108811;28;20467;-80
2022/02/18 07:10:06;;;;;;;14.77;6.65;;;4.20;99.90;;;;;;5108858;28;20375;-80
2022/02/18 07:12:32;;;;;;;16.67;6.20;;;4.20;99.90;;;;;;5109903;28;20446;-80
2022/02/18 07:14:58;;;;;;;16.47;7.07;;;4.40;99.90;;;;;;5108990;28;20417;-81
2022/02/18 07:17:26;;;;;;;14.60;6.67;;;4.40;99.90;;;;;;5108857;28;20903;-80
2022/02/18 07:19:52;;;;;;;15.27;6.30;;;4.40;99.90;;;;;;5100314;28;20409;-80
2022/02/18 07:22:18;;;;;;;15.80;6.95;;;4.50;99.90;;;;;;5107360;28;20371;-81
2022/02/18 07:24:45;;;;;;;16.50;6.77;;;4.60;99.90;;;;;;5106611;28;20390;-81
2022/02/18 07:27:11;;;;;;;15.47;6.83;;;4.70;99.90;;;;;;5107146;28;20559;-81
2022/02/18 07:29:36;;;;;;;17.47;7.60;;;4.90;99.90;;;;;;5108042;28;20956;-80
2022/02/18 07:32:02;;;;;;;16.10;8.10;;;5.00;99.90;;;;;;5087538;28;20962;-81
2022/02/18 07:34:28;;;;;;;12.50;7.57;;;5.10;99.90;;;;;;5107357;28;20383;-81
2022/02/18 07:36:54;;;;;;;14.43;7.97;;;5.30;99.90;;;;;;5098217;28;20746;-81
2022/02/18 07:39:20;;;;;;;16.73;8.02;;;5.60;99.90;;;;;;5109187;28;20760;-81
2022/02/18 07:41:45;;;;;;;15.25;7.47;;;5.70;99.90;;;;;;5089845;28;20410;-81
2022/02/18 07:44:11;;;;;;;15.63;8.17;;;5.70;99.90;;;;;;5110388;28;20856;-81
2022/02/18 07:46:37;;;;;;;14.83;7.97;;;5.90;99.90;;;;;;5094622;28;21151;-81
2022/02/18 07:49:02;;;;;;;13.17;7.57;;;6.00;99.90;;;;;;5111793;28;20487;-80
2022/02/18 07:51:28;;;;;;;16.95;7.82;;;6.00;99.90;;;;;;5112767;28;20914;-82
2022/02/18 07:53:54;;;;;;;16.55;7.93;;;6.20;99.90;;;;;;5094508;28;20402;-82
2022/02/18 07:56:20;;;;;;;15.33;7.83;;;6.30;99.90;;;;;;5107506;28;20480;-81
2022/02/18 07:58:45;;;;;;;17.13;7.50;;;6.50;99.90;;;;;;5107162;27;20409;-81
2022/02/18 08:01:17;;;;;;;15.10;7.53;;;6.60;99.90;;;;;;5133299;27;20365;-81
2022/02/18 08:03:44;;;;;;;13.75;7.55;;;6.60;99.90;;;;;;5115363;27;20385;-82
2022/02/18 08:06:09;;;;;;;19.25;8.15;;;6.60;99.90;;;;;;5103368;27;20407;-81
2022/02/18 08:08:38;;;;;;;15.70;7.72;;;6.60;99.90;;;;;;5125083;27;20739;-81
2022/02/18 08:11:04;;;;;;;16.00;7.43;;;6.60;99.90;;;;;;5111583;28;20437;-81
2022/02/18 08:13:30;;;;;;;15.55;7.28;;;6.70;99.90;;;;;;5114220;28;20892;-81
2022/02/18 08:15:56;;;;;;;17.83;7.95;;;6.70;99.90;;;;;;5113547;28;20844;-81
2022/02/18 08:18:22;;;;;;;15.73;7.35;;;6.70;99.90;;;;;;5112486;28;20375;-81
2022/02/18 08:20:48;;;;;;;13.75;6.97;;;6.70;99.90;;;;;;5112850;28;20986;-81
2022/02/18 08:23:14;;;;;;;14.55;7.40;;;6.80;99.90;;;;;;5107505;28;20888;-81
2022/02/18 08:25:40;;;;;;;17.75;7.82;;;6.80;99.90;;;;;;5095087;28;20380;-81
2022/02/18 08:28:06;;;;;;;17.53;7.37;;;6.70;99.90;;;;;;5076036;28;20924;-81
2022/02/18 08:30:32;;;;;;;13.33;7.13;;;6.80;99.90;;;;;;5085270;28;20478;-82
2022/02/18 08:32:59;;;;;;;15.65;7.22;;;6.90;99.90;;;;;;5095453;28;20382;-82
2022/02/18 08:35:25;;;;;;;14.43;6.40;;;7.00;99.90;;;;;;5093088;28;21113;-81
2022/02/18 08:37:51;;;;;;;17.70;7.00;;;7.00;99.90;;;;;;5092407;28;20402;-80
2022/02/18 08:40:16;;;;;;;12.93;7.15;;;7.00;99.90;;;;;;5074748;28;20493;-81
2022/02/18 08:42:42;;;;;;;15.87;6.93;;;7.20;99.90;;;;;;5092465;28;20369;-82
2022/02/18 08:45:08;;;;;;;13.52;6.95;;;7.30;99.90;;;;;;5091508;28;20481;-82
2022/02/18 08:47:34;;;;;;;16.08;6.95;;;7.40;99.90;;;;;;5091744;28;20827;-82
2022/02/18 08:49:59;;;;;;;14.35;6.15;;;7.40;99.90;;;;;;5106034;28;20918;-82
2022/02/18 08:52:25;;;;;;;12.90;6.40;;;7.40;99.90;;;;;;5111069;28;20405;-80
2022/02/18 08:54:51;;;;;;;15.87;6.30;;;7.50;99.90;;;;;;5110264;28;20797;-82
2022/02/18 08:57:16;;;;;;;16.83;6.78;;;7.60;99.90;;;;;;5111012;28;20391;-81
2022/02/18 08:59:42;;;;;;;17.23;7.45;;;7.80;99.90;;;;;;5113892;27;20782;-82
2022/02/18 09:02:10;;;;;;;11.70;6.50;;;7.80;99.90;;;;;;5111675;28;20446;-81
2022/02/18 09:04:36;;;;;;;14.95;6.97;;;7.90;99.90;;;;;;5110441;28;20386;-81
2022/02/18 09:07:02;;;;;;;14.77;6.70;;;8.00;99.90;;;;;;5111784;28;20383;-81
2022/02/18 09:09:28;;;;;;;17.33;7.03;;;7.90;99.90;;;;;;5111833;28;20411;-82
2022/02/18 09:11:53;;;;;;;14.15;6.78;;;7.80;99.90;;;;;;5114014;28;20364;-82
2022/02/18 09:14:19;;;;;;;14.80;6.87;;;7.90;99.90;;;;;;5112415;28;20432;-82
2022/02/18 09:16:45;;;;;;;12.77;6.88;;;7.80;99.90;;;;;;5097279;28;20392;-81
2022/02/18 09:19:11;;;;;;;13.98;6.45;;;7.80;99.90;;;;;;5090722;28;20376;-81
2022/02/18 09:21:36;;;;;;;14.25;6.57;;;7.80;99.90;;;;;;5072264;28;20727;-82
2022/02/18 09:24:02;;;;;;;14.45;6.70;;;7.90;99.90;;;;;;5072122;28;20404;-82
2022/02/18 09:26:28;;;;;;;14.87;6.50;;;7.90;99.90;;;;;;5103816;28;20793;-81
2022/02/18 09:28:55;;;;;;;12.80;6.10;;;7.90;99.90;;;;;;5092177;28;20393;-81
2022/02/18 09:31:20;;;;;;;17.55;6.60;;;8.00;99.90;;;;;;5094077;28;20397;-81
2022/02/18 09:33:49;;;;;;;17.00;6.60;;;7.90;99.90;;;;;;5079523;28;20687;-81
2022/02/18 09:36:16;;;;;;;10.70;6.07;;;7.80;99.90;;;;;;5092717;28;20425;-81
2022/02/18 09:38:42;;;;;;;14.07;5.72;;;7.90;99.90;;;;;;5093009;28;20390;-82
2022/02/18 09:41:07;;;;;;;14.60;5.93;;;8.00;99.90;;;;;;5115040;28;20398;-82
2022/02/18 09:43:35;;;;;;;13.97;5.67;;;8.20;99.90;;;;;;5077705;28;20386;-82
2022/02/18 09:46:02;;;;;;;13.25;5.55;;;8.20;99.90;;;;;;5092898;28;20399;-81
2022/02/18 09:48:28;;;;;;;14.25;5.55;;;8.20;99.90;;;;;;5094459;28;20370;-82
2022/02/18 09:50:55;;;;;;;13.85;6.07;;;8.20;99.90;;;;;;5094440;28;20378;-81
2022/02/18 09:53:21;;;;;;;11.85;5.05;;;8.20;99.90;;;;;;5093693;28;20383;-82
2022/02/18 09:55:48;;;;;;;11.00;5.13;;;8.10;99.90;;;;;;5091968;28;20394;-82
2022/02/18 09:58:22;;;;;;;10.40;5.05;;;8.00;99.90;;;;;;5111897;27;20862;-82
2022/02/18 10:00:48;;;;;;;11.57;4.85;;;8.20;99.90;;;;;;5083861;28;20455;-82
2022/02/18 10:03:17;;;;;;;9.48;4.47;;;8.10;99.90;;;;;;5086576;28;20797;-81
2022/02/18 10:05:42;;;;;;;13.05;5.30;;;8.00;99.90;;;;;;5083535;27;20908;-82
2022/02/18 10:08:15;;;;;;;11.93;4.72;;;8.30;99.90;;;;;;5111484;27;20375;-82
2022/02/18 10:10:43;;;;;;;12.15;4.68;;;8.10;99.90;;;;;;5103681;27;20438;-81
2022/02/18 10:13:30;;;;;;;12.07;4.27;;;8.30;99.90;;;;;;5129827;27;20405;-81
2022/02/18 10:15:57;;;;;;;12.18;4.40;;;8.30;99.90;;;;;;5129508;27;20977;-81
2022/02/18 10:18:25;;;;;;;13.80;4.90;;;8.30;99.90;;;;;;5131836;27;20443;-82
2022/02/18 10:20:51;;;;;;;11.60;4.55;;;8.30;99.90;;;;;;5130670;27;20495;-83
2022/02/18 10:23:18;;;;;;;8.65;4.28;;;8.30;99.90;;;;;;5111444;27;20800;-82
2022/02/18 10:25:45;;;;;;;9.50;4.50;;;8.40;99.90;;;;;;5079026;28;20391;-81
2022/02/18 10:28:13;;;;;;;12.43;4.70;;;8.40;99.90;;;;;;5125944;27;20881;-81
2022/02/18 10:30:39;;;;;;;11.15;4.20;;;8.40;99.90;;;;;;5111340;27;20393;-82
2022/02/18 10:33:17;;;;;;;9.27;4.00;;;8.50;99.90;;;;;;5110595;28;20375;-80
2022/02/18 10:35:44;;;;;;;9.05;4.00;;;8.50;99.90;;;;;;5091126;28;20410;-82
2022/02/18 10:38:11;;;;;;;10.18;4.00;;;8.60;99.90;;;;;;5109668;28;20468;-80
2022/02/18 10:40:49;;;;;;;11.40;4.55;;;8.70;99.90;;;;;;5109791;28;20405;-80
2022/02/18 10:43:18;;;;;;;7.78;3.88;;;8.80;99.90;;;;;;5110020;28;20383;-81
2022/02/18 10:45:51;;;;;;;10.23;3.85;;;8.90;99.90;;;;;;5112386;28;20390;-81
2022/02/18 10:48:20;;;;;;;11.05;3.95;;;8.80;99.90;;;;;;5103679;28;21043;-81
2022/02/18 10:51:06;;;;;;;9.70;3.78;;;8.70;99.90;;;;;;5122779;27;20476;-81
2022/02/18 10:53:44;;;;;;;9.23;3.77;;;8.70;99.90;;;;;;5106855;28;20487;-79
2022/02/18 10:56:12;;;;;;;9.93;3.70;;;8.70;99.90;;;;;;5110420;28;20386;-81
2022/02/18 10:58:50;;;;;;;9.60;3.50;;;8.60;99.90;;;;;;5101186;28;20464;-81
2022/02/18 11:01:23;;;;;;;6.97;3.22;;;8.50;99.90;;;;;;5132832;27;20372;-80
2022/02/18 11:04:03;;;;;;;9.30;3.58;;;8.30;99.90;;;;;;5131719;27;20366;-80
2022/02/18 11:06:34;;;;;;;8.32;3.17;;;8.40;99.90;;;;;;5102646;28;20394;-82
2022/02/18 11:09:01;;;;;;;10.00;3.25;;;8.20;99.90;;;;;;5097391;28;20432;-83
2022/02/18 11:11:45;;;;;;;9.50;3.40;;;8.10;99.90;;;;;;5093414;28;20401;-83
2022/02/18 11:14:13;;;;;;;10.30;3.20;;;8.00;99.90;;;;;;5082394;28;20385;-83
2022/02/18 11:16:41;;;;;;;8.30;3.38;;;7.90;99.90;;;;;;5084275;28;20433;-83
2022/02/18 11:19:06;;;;;;;7.40;3.40;;;7.60;99.90;;;;;;5112323;28;20377;-82
2022/02/18 11:21:32;;;;;;;9.15;3.55;;;7.60;99.90;;;;;;5113916;28;20457;-83
2022/02/18 11:24:02;;;;;;;9.70;4.03;;;7.40;99.90;;;;;;5098462;28;20382;-82
2022/02/18 11:26:29;;;;;;;8.00;3.42;;;7.50;99.90;;;;;;5106062;28;20416;-83
2022/02/18 11:28:56;;;;;;;10.27;3.53;;;7.50;99.90;;;;;;5126364;27;20380;-83
2022/02/18 11:31:47;;;;;;;9.00;3.58;;;7.50;99.90;;;;;;5103627;27;20380;-82
2022/02/18 11:34:25;;;;;;;10.63;3.88;;;7.60;99.90;;;;;;5094480;28;20798;-82
2022/02/18 11:37:29;;;;;;;7.93;3.17;;;7.60;99.90;;;;;;5078009;28;20414;-81
2022/02/18 11:40:35;;;;;;;8.90;3.60;;;7.60;99.90;;;;;;5108732;27;20380;-83
2022/02/18 11:43:43;;;;;;;6.43;3.28;;;7.70;99.90;;;;;;5135882;27;20396;-82
2022/02/18 11:46:21;;;;;;;9.70;3.73;;;7.70;99.90;;;;;;5118508;27;20386;-83
2022/02/18 11:48:49;;;;;;;7.30;3.42;;;7.70;99.90;;;;;;5115125;28;20387;-82
2022/02/18 11:51:23;;;;;;;8.43;3.20;;;7.80;99.90;;;;;;5094619;28;20383;-82
2022/02/18 11:53:57;;;;;;;7.00;2.95;;;8.00;99.90;;;;;;5112993;28;20435;-82
2022/02/18 11:56:35;;;;;;;8.25;3.20;;;7.90;99.90;;;;;;5097516;28;20453;-82
2022/02/18 11:59:03;;;;;;;5.78;2.58;;;8.10;99.90;;;;;;5091982;28;20381;-83
2022/02/18 12:02:05;;;;;;;6.53;2.85;;;8.20;99.90;;;;;;5091835;28;20372;-83
2022/02/18 12:04:32;;;;;;;7.82;3.30;;;8.30;99.90;;;;;;5094352;27;20895;-82
2022/02/18 12:07:23;;;;;;;7.85;3.25;;;8.40;99.90;;;;;;5117687;27;20378;-81
2022/02/18 12:09:53;;;;;;;9.18;3.83;;;8.40;99.90;;;;;;5112569;28;20457;-81
2022/02/18 12:12:28;;;;;;;10.15;3.88;;;8.50;99.90;;;;;;5111750;28;20390;-81
2022/02/18 12:14:56;;;;;;;9.23;3.03;;;8.60;99.90;;;;;;5094790;28;20858;-82
2022/02/18 12:17:26;;;;;;;6.15;2.90;;;8.60;99.90;;;;;;5093648;28;20403;-82
2022/02/18 12:19:52;;;;;;;8.40;3.25;;;8.50;99.90;;;;;;5078046;28;20495;-81
2022/02/18 12:22:33;;;;;;;9.47;3.57;;;8.60;99.90;;;;;;5110053;28;20542;-82
2022/02/18 12:25:00;;;;;;;7.82;3.13;;;8.60;99.90;;;;;;5113240;28;20379;-82
2022/02/18 12:27:29;;;;;;;10.48;4.80;;;8.70;99.90;;;;;;5092406;28;20424;-82
2022/02/18 12:29:56;;;;;;;6.85;3.20;;;8.80;99.90;;;;;;5093686;28;20737;-81
2022/02/18 12:32:22;;;;;;;8.27;3.53;;;8.70;99.90;;;;;;5114496;28;20351;-82
2022/02/18 12:35:05;;;;;;;8.95;4.20;;;8.80;99.90;;;;;;5096046;28;20442;-82
2022/02/18 12:37:31;;;;;;;10.13;4.60;;;8.60;99.90;;;;;;5112582;28;20865;-82
2022/02/18 12:39:59;;;;;;;9.40;4.17;;;8.40;99.90;;;;;;5113488;28;20387;-82
2022/02/18 12:42:32;;;;;;;11.82;3.92;;;8.40;99.90;;;;;;5096150;28;20379;-83
2022/02/18 12:45:01;;;;;;;11.90;4.90;;;8.40;99.90;;;;;;5096009;28;20387;-82
2022/02/18 12:47:31;;;;;;;9.40;4.47;;;8.20;99.90;;;;;;5062006;28;20390;-81
2022/02/18 12:50:04;;;;;;;13.00;5.05;;;8.20;99.90;;;;;;5112067;28;20386;-81